West Memphis, Arkansas
Current Conditions -  °F | °C
As of 6:53 AM on Friday 19 Dec 2014 (Local Time) from KAWM Reporting Station
Overcast Overcast  
Wind Chill: 35°   Ceiling: 3500
Heat Index: 40°   Visibility: 9mi
Dew Point: 38°   Wind: 7mph
Humidity: 93%   Direction: 50°NE
Pressure: 30.23"   Gusts: NA
Location:  35.15°N, 90.19°W
Report Text: KAWM 191253Z AUTO 05006KT 9SM OVC035 04/03 A3023 RMK AO2 SLP238 T00440033
Loading
Personal Weather Stations






























Interactive Weather Map New forecast layout! Learn more

10-Day Weather Forecast

Advertisements
Track Severe Weather on mobile